createdAt,value
2023-02-19T00:00:02.977Z,6.89
2023-02-19T00:05:02.786Z,6.89
2023-02-19T00:10:02.365Z,6.83
2023-02-19T00:15:03.125Z,6.77
2023-02-19T00:20:02.872Z,6.66
2023-02-19T00:25:02.651Z,6.63
2023-02-19T00:30:02.690Z,6.61
2023-02-19T00:35:02.570Z,6.5
2023-02-19T00:40:02.327Z,6.49
2023-02-19T00:45:03.102Z,6.45
2023-02-19T00:50:02.800Z,6.39
2023-02-19T00:55:02.956Z,6.39
2023-02-19T01:00:02.397Z,6.47
2023-02-19T01:05:03.109Z,6.54
2023-02-19T01:10:02.843Z,6.62
2023-02-19T01:15:03.232Z,6.59
2023-02-19T01:20:03.010Z,6.6
2023-02-19T01:25:03.189Z,6.59
2023-02-19T01:30:03.089Z,6.59
2023-02-19T01:35:02.723Z,6.65
2023-02-19T01:40:02.459Z,6.65
2023-02-19T01:45:02.294Z,6.68
2023-02-19T01:50:02.919Z,6.66
2023-02-19T01:55:03.626Z,6.66
2023-02-19T02:00:02.541Z,6.59
2023-02-19T02:05:02.239Z,6.59
2023-02-19T02:10:03.067Z,6.57
2023-02-19T02:15:03.409Z,6.53
2023-02-19T02:20:02.929Z,6.52
2023-02-19T02:25:02.798Z,6.51
2023-02-19T02:35:03.304Z,6.62
2023-02-19T02:40:02.915Z,6.62
2023-02-19T02:45:02.852Z,6.61
2023-02-19T02:50:02.555Z,6.55
2023-02-19T02:55:03.065Z,6.56
2023-02-19T03:00:03.055Z,6.53
2023-02-19T03:05:02.752Z,6.48
2023-02-19T03:10:02.978Z,6.45
2023-02-19T03:15:02.708Z,6.4
2023-02-19T03:20:02.714Z,6.37
2023-02-19T03:25:02.415Z,6.37
2023-02-19T03:30:03.160Z,6.33
2023-02-19T03:35:02.765Z,6.3
2023-02-19T03:40:02.683Z,6.29
2023-02-19T03:45:02.463Z,6.28
2023-02-19T03:50:03.087Z,6.26
2023-02-19T03:55:03.453Z,6.23
2023-02-19T04:00:02.631Z,6.2
2023-02-19T04:05:02.407Z,6.11
2023-02-19T04:10:02.598Z,6.14
2023-02-19T04:15:02.608Z,6.05
2023-02-19T04:20:02.649Z,6
2023-02-19T04:30:03.169Z,5.74
2023-02-19T04:35:02.827Z,5.52
2023-02-19T04:40:02.752Z,5.31
2023-02-19T04:45:02.510Z,5.18
2023-02-19T04:50:02.997Z,5.12
2023-02-19T04:55:03.576Z,5.12
2023-02-19T05:00:02.586Z,4.44
2023-02-19T05:05:02.225Z,3.9
2023-02-19T05:10:02.965Z,3.67
2023-02-19T05:15:03.105Z,3.48
2023-02-19T05:20:03.016Z,3.44
2023-02-19T05:25:02.894Z,3.34
2023-02-19T05:30:03.013Z,3.3
2023-02-19T05:35:02.569Z,3.24
2023-02-19T05:40:02.623Z,3.16
2023-02-19T05:45:02.682Z,3.06
2023-02-19T05:50:02.487Z,2.98
2023-02-19T05:55:03.637Z,2.9
2023-02-19T06:00:02.865Z,2.72
2023-02-19T06:05:02.559Z,2.67
2023-02-19T06:10:02.392Z,2.6
2023-02-19T06:15:03.061Z,2.51
2023-02-19T06:20:02.805Z,2.37
2023-02-19T06:25:02.576Z,2.34
2023-02-19T06:30:02.706Z,2.33
2023-02-19T06:35:02.847Z,2.3
2023-02-19T06:40:02.774Z,2.25
2023-02-19T06:45:02.540Z,2.27
2023-02-19T06:50:02.651Z,2.06
2023-02-19T06:55:03.281Z,2.03
2023-02-19T07:00:02.438Z,2.06
2023-02-19T07:05:03.090Z,2.14
2023-02-19T07:10:02.887Z,2.09
2023-02-19T07:15:02.600Z,2.07
2023-02-19T07:20:02.496Z,2.22
2023-02-19T07:25:02.332Z,2.25
2023-02-19T07:30:03.112Z,2.13
2023-02-19T07:35:02.781Z,2.11
2023-02-19T07:40:03.001Z,2.12
2023-02-19T07:45:03.122Z,2.2
2023-02-19T07:50:02.819Z,2.24
2023-02-19T07:55:03.633Z,2.29
2023-02-19T08:00:02.485Z,2.37
2023-02-19T08:05:02.477Z,2.3
2023-02-19T08:10:02.259Z,2.41
2023-02-19T08:15:03.216Z,2.59
2023-02-19T08:20:02.926Z,2.79
2023-02-19T08:25:02.723Z,2.86
2023-02-19T08:30:02.417Z,3.1
2023-02-19T08:35:03.123Z,2.98
2023-02-19T08:40:02.813Z,3.35
2023-02-19T08:45:02.687Z,3.34
2023-02-19T08:50:02.556Z,3.37
2023-02-19T08:55:03.748Z,3.43
2023-02-19T09:00:03.170Z,3.91
2023-02-19T09:05:02.805Z,4.31
2023-02-19T09:10:02.836Z,4.72
2023-02-19T09:15:02.612Z,4.14
2023-02-19T09:20:02.383Z,3.81
2023-02-19T09:25:03.125Z,4.04
2023-02-19T09:30:03.215Z,4.34
2023-02-19T09:35:02.890Z,4.27
2023-02-19T09:40:02.676Z,4.63
2023-02-19T09:45:02.791Z,5.2
2023-02-19T09:50:02.420Z,4.95
2023-02-19T09:55:02.948Z,4.95
2023-02-19T10:00:03.180Z,5.23
2023-02-19T10:05:02.895Z,5.25
2023-02-19T10:10:03.042Z,5.8
2023-02-19T10:15:02.754Z,6.12
2023-02-19T10:20:02.456Z,6.26
2023-02-19T10:25:02.320Z,5.91
2023-02-19T10:30:03.171Z,5.5
2023-02-19T10:35:02.841Z,5.78
2023-02-19T10:40:02.797Z,5.86
2023-02-19T10:45:02.834Z,5.64
2023-02-19T10:50:04.570Z,5.55
2023-02-19T10:55:03.037Z,6.04
2023-02-19T11:00:03.087Z,6.43
2023-02-19T11:05:02.847Z,5.95
2023-02-19T11:10:02.678Z,6.23
2023-02-19T11:15:02.598Z,6.47
2023-02-19T11:20:02.447Z,5.87
2023-02-19T11:25:03.372Z,6.37
2023-02-19T12:30:02.414Z,7.36
2023-02-19T12:35:02.432Z,7.81
2023-02-19T12:40:02.420Z,8.16
2023-02-19T12:45:03.225Z,7.3
2023-02-19T12:50:03.037Z,7.91
2023-02-19T12:55:04.077Z,7.24
2023-02-19T13:00:02.438Z,6.73
2023-02-19T13:05:02.410Z,7.49
2023-02-19T13:10:02.363Z,6.64
2023-02-19T13:15:03.149Z,6.12
2023-02-19T13:20:02.917Z,6.47
2023-02-19T13:25:02.782Z,7.65
2023-02-19T13:30:03.029Z,8.06
2023-02-19T13:35:02.428Z,6.65
2023-02-19T13:40:02.203Z,7.1
2023-02-19T13:45:03.166Z,7.57
2023-02-19T13:50:03.132Z,7.89
2023-02-19T13:55:03.197Z,8.06
2023-02-19T14:00:02.388Z,7.69
2023-02-19T14:05:03.153Z,7.32
2023-02-19T14:10:02.866Z,6.65
2023-02-19T14:15:02.660Z,6.57
2023-02-19T14:20:02.398Z,6.08
2023-02-19T14:25:03.171Z,5.97
2023-02-19T14:30:03.037Z,6.29
2023-02-19T14:35:02.959Z,6.46
2023-02-19T14:40:02.746Z,6.26
2023-02-19T14:45:02.517Z,6.02
2023-02-19T14:50:02.307Z,5.99
2023-02-19T14:55:03.727Z,6.15
2023-02-19T15:00:03.082Z,7.16
2023-02-19T15:05:02.744Z,7.39
2023-02-19T15:10:04.786Z,7.05
2023-02-19T15:15:02.629Z,6.63
2023-02-19T15:20:02.502Z,6.8
2023-02-19T15:25:02.323Z,6.93
2023-02-19T15:30:03.290Z,6.44
2023-02-19T15:35:02.908Z,6.37
2023-02-19T15:40:02.669Z,5.89
2023-02-19T15:45:02.396Z,6.11
2023-02-19T15:50:03.162Z,5.91
2023-02-19T15:55:02.814Z,5.62
2023-02-19T16:00:03.005Z,5.06
2023-02-19T16:05:02.601Z,5.05
2023-02-19T16:10:02.429Z,4.78
2023-02-19T16:15:02.289Z,4.6
2023-02-19T16:20:02.320Z,4.32
2023-02-19T16:25:03.006Z,3.95
2023-02-19T16:30:02.890Z,4.19
2023-02-19T16:35:02.596Z,4.28
2023-02-19T16:40:02.269Z,3.94
2023-02-19T16:45:03.061Z,3.7
2023-02-19T16:50:02.730Z,3.27
2023-02-19T16:55:03.211Z,3.25
2023-02-19T17:00:03.162Z,3.54
2023-02-19T17:05:02.879Z,3.14
2023-02-19T17:10:02.620Z,2.76
2023-02-19T17:15:02.814Z,2.14
2023-02-19T17:20:02.490Z,1.65
2023-02-19T17:25:03.187Z,1.37
2023-02-19T17:30:03.079Z,1.22
2023-02-19T17:35:02.634Z,1.14
2023-02-19T17:40:02.353Z,0.61
2023-02-19T17:45:02.469Z,0.34
2023-02-19T17:50:02.340Z,0.18
2023-02-19T17:55:04.035Z,0.47
2023-02-19T18:00:03.031Z,0.51
2023-02-19T18:05:02.692Z,0.48
2023-02-19T18:10:02.610Z,0.04
2023-02-19T18:15:02.321Z,0.26
2023-02-19T18:20:02.976Z,0.43
2023-02-19T18:25:03.089Z,0.42
2023-02-19T18:30:02.878Z,0.88
2023-02-19T18:35:02.478Z,1.12
2023-02-19T18:40:02.449Z,1.08
2023-02-19T18:45:03.206Z,0.93
2023-02-19T18:50:03.017Z,0.38
2023-02-19T18:55:03.598Z,0.26
2023-02-19T19:00:02.456Z,0.35
2023-02-19T19:05:03.139Z,0.42
2023-02-19T19:10:02.832Z,0.71
2023-02-19T19:15:02.536Z,0.89
2023-02-19T19:20:02.465Z,0.66
2023-02-19T19:25:02.551Z,0.3
2023-02-19T19:30:02.392Z,0.29
2023-02-19T19:35:02.212Z,0.54
2023-02-19T19:40:02.976Z,0.48
2023-02-19T19:45:02.912Z,0.36
2023-02-19T19:50:02.536Z,0.56
2023-02-19T19:55:02.982Z,0.61
2023-02-19T20:00:03.052Z,0.7
2023-02-19T20:05:02.887Z,0.37
2023-02-19T20:10:02.921Z,-0.06
2023-02-19T20:15:02.882Z,-0.44
2023-02-19T20:20:02.619Z,-0.46
2023-02-19T20:25:02.616Z,-1.02
2023-02-19T20:30:02.349Z,-1.19
2023-02-19T20:35:03.079Z,-1.3
2023-02-19T20:40:02.824Z,-1.4
2023-02-19T20:45:02.772Z,-1.3
2023-02-19T20:50:02.321Z,-1.12
2023-02-19T20:55:03.494Z,-1.46
2023-02-19T21:00:02.474Z,-1.62
2023-02-19T21:05:03.146Z,-1.56
2023-02-19T21:10:02.833Z,-1.41
2023-02-19T21:15:02.677Z,-1.27
2023-02-19T21:20:02.469Z,-1.19
2023-02-19T21:25:02.482Z,-1.21
2023-02-19T21:30:02.393Z,-1.22
2023-02-19T21:35:02.243Z,-1.4
2023-02-19T21:40:02.368Z,-1.53
2023-02-19T21:45:03.356Z,-1.63
2023-02-19T21:50:02.859Z,-1.6
2023-02-19T21:55:03.240Z,-1.34
2023-02-19T22:00:02.430Z,-1.51
2023-02-19T22:05:03.055Z,-1.69
2023-02-19T22:10:02.819Z,-1.91
2023-02-19T22:15:02.688Z,-1.76
2023-02-19T22:20:02.772Z,-1.62
2023-02-19T22:25:02.465Z,-1.35
2023-02-19T22:30:02.403Z,-1.15
2023-02-19T22:35:03.162Z,-1.11
2023-02-19T22:40:02.990Z,-1.05
2023-02-19T22:45:02.594Z,-1.09
2023-02-19T22:50:02.345Z,-1.06
2023-02-19T22:55:03.919Z,-0.9
2023-02-19T23:00:03.132Z,-0.59
2023-02-19T23:05:02.956Z,-0.35
2023-02-19T23:10:02.671Z,-0.28
2023-02-19T23:15:02.435Z,-0.36
2023-02-19T23:20:02.321Z,-0.49
2023-02-19T23:25:03.240Z,-0.6
2023-02-19T23:30:03.160Z,-0.56
2023-02-19T23:35:02.279Z,-0.68
2023-02-19T23:40:03.054Z,-0.78
2023-02-19T23:45:02.818Z,-0.85
2023-02-19T23:50:02.656Z,-1.01
2023-02-19T23:55:02.938Z,-1.26
